Time;durP1;ratioP1;P1;durP2;ratioP2;P2;SDS_P1;SDS_P2;PMS_P1;PMS_P2;Temp;Humidity;BMP_temperature;BMP_pressure;BME280_temperature;BME280_humidity;BME280_pressure;Samples;Min_cycle;Max_cycle;Signal;HPM_P1;HPM_P2
2021/12/10 00:01:53;;;;;;;24.15;9.70;;;;;;;2.51;100.00;99686.09;5033911;28;20071;-79
2021/12/10 00:04:22;;;;;;;27.13;9.50;;;;;;;2.51;100.00;99693.94;5034201;28;20024;-79
2021/12/10 00:06:51;;;;;;;24.55;9.65;;;;;;;2.51;100.00;99682.66;5053556;28;20041;-78
2021/12/10 00:09:33;;;;;;;24.80;9.00;;;;;;;2.51;100.00;99686.09;5046790;28;20097;-79
2021/12/10 00:12:06;;;;;;;24.27;8.77;;;;;;;2.50;100.00;99678.31;5033922;28;20026;-79
2021/12/10 00:14:33;;;;;;;22.25;9.15;;;;;;;2.48;100.00;99673.13;5034145;28;20017;-78
2021/12/10 00:17:00;;;;;;;25.75;9.43;;;;;;;2.42;100.00;99662.88;5049658;28;20025;-79
2021/12/10 00:19:33;;;;;;;22.58;9.07;;;;;;;2.37;100.00;99662.16;5048487;28;20055;-78
2021/12/10 00:22:05;;;;;;;18.30;9.23;;;;;;;2.38;100.00;99658.63;5033736;28;20101;-79
2021/12/10 00:24:31;;;;;;;;;;;;;;;2.36;100.00;99650.00;5034521;28;20021;-77
2021/12/10 00:26:58;;;;;;;19.50;9.68;;;;;;;2.36;100.00;99655.22;5044462;28;20296;-79
2021/12/10 00:29:24;;;;;;;25.23;9.23;;;;;;;2.36;100.00;99637.78;5052785;28;20037;-78
2021/12/10 00:32:00;;;;;;;22.02;9.82;;;;;;;2.37;100.00;99644.72;5051665;28;20045;-79
2021/12/10 00:34:28;;;;;;;21.25;10.38;;;;;;;2.42;100.00;99626.28;5053290;28;20100;-79
2021/12/10 00:36:59;;;;;;;23.85;10.75;;;;;;;2.46;100.00;99622.69;5051315;28;20398;-79
2021/12/10 00:39:28;;;;;;;25.42;11.20;;;;;;;2.51;100.00;99615.56;5053397;28;20053;-80
2021/12/10 00:41:56;;;;;;;20.52;11.38;;;;;;;2.50;100.00;99615.59;5052802;28;20059;-79
2021/12/10 00:44:22;;;;;;;25.88;11.98;;;;;;;2.50;100.00;99606.00;5053095;28;20036;-80
2021/12/10 00:46:47;;;;;;;26.77;12.10;;;;;;;2.51;100.00;99612.09;5052875;28;20112;-79
2021/12/10 00:49:13;;;;;;;22.52;12.23;;;;;;;2.51;100.00;99602.47;5052696;28;20021;-80
2021/12/10 00:51:39;;;;;;;21.75;11.68;;;;;;;2.50;100.00;99581.63;5052896;28;20049;-79
2021/12/10 00:54:07;;;;;;;23.25;12.15;;;;;;;2.52;100.00;99580.69;5052980;28;20052;-78
2021/12/10 00:56:34;;;;;;;24.65;11.77;;;;;;;2.49;100.00;99582.53;5053149;28;20392;-79
2021/12/10 00:58:59;;;;;;;25.25;11.70;;;;;;;2.46;100.00;99573.88;5052628;28;20033;-79
2021/12/10 01:01:28;;;;;;;23.30;11.70;;;;;;;2.45;100.00;99563.47;5052130;28;20037;-78
2021/12/10 01:04:18;;;;;;;19.65;10.70;;;;;;;2.45;100.00;99561.69;5052570;28;20032;-79
2021/12/10 01:06:47;;;;;;;24.65;10.23;;;;;;;2.41;100.00;99551.41;5053163;28;20112;-78
2021/12/10 01:09:18;;;;;;;22.40;10.40;;;;;;;2.37;100.00;99560.28;5052620;28;20108;-80
2021/12/10 01:11:54;;;;;;;23.02;11.00;;;;;;;2.35;100.00;99546.38;5052518;28;20139;-79
2021/12/10 01:14:57;;;;;;;21.52;10.15;;;;;;;2.33;100.00;99540.34;5052821;28;20431;-80
2021/12/10 01:25:53;;;;;;;18.63;10.20;;;;;;;2.23;100.00;99516.28;5052759;28;20040;-80
2021/12/10 01:28:18;;;;;;;19.25;9.20;;;;;;;2.19;100.00;99517.31;5052575;28;20462;-80
2021/12/10 01:30:44;;;;;;;18.95;9.75;;;;;;;2.17;100.00;99511.25;5052144;28;20092;-78
2021/12/10 01:33:13;;;;;;;19.58;10.15;;;;;;;2.15;100.00;99507.81;5051839;28;20028;-81
2021/12/10 01:35:45;;;;;;;22.85;10.45;;;;;;;2.11;100.00;99509.69;5052512;28;20036;-79
2021/12/10 01:38:12;;;;;;;21.48;10.18;;;;;;;2.10;100.00;99505.38;5052665;28;20034;-80
2021/12/10 01:40:41;;;;;;;25.40;11.20;;;;;;;2.11;100.00;99505.31;5052083;28;20025;-81
2021/12/10 01:43:11;;;;;;;24.27;10.85;;;;;;;2.09;100.00;99506.28;5052293;28;20029;-80
2021/12/10 01:45:46;;;;;;;20.77;10.98;;;;;;;2.12;100.00;99508.78;5052654;28;20025;-80
2021/12/10 01:48:21;;;;;;;19.95;10.98;;;;;;;2.12;100.00;99496.59;5052299;28;20056;-80
2021/12/10 01:50:48;;;;;;;16.13;9.50;;;;;;;2.10;100.00;99481.88;5052072;28;20534;-79
2021/12/10 01:53:15;;;;;;;19.45;10.35;;;;;;;2.09;100.00;99483.63;5050676;28;20125;-79
2021/12/10 01:55:45;;;;;;;19.52;10.45;;;;;;;2.04;100.00;99477.69;5052451;28;20029;-79
2021/12/10 01:58:13;;;;;;;25.08;10.73;;;;;;;2.03;100.00;99470.75;5052347;28;20438;-80
2021/12/10 02:00:43;;;;;;;24.42;10.35;;;;;;;2.03;100.00;99470.75;5052147;28;20089;-79
2021/12/10 02:03:09;;;;;;;20.63;9.93;;;;;;;1.98;100.00;99461.38;5051308;28;20440;-79
2021/12/10 02:05:35;;;;;;;19.20;9.15;;;;;;;1.98;100.00;99451.75;5052047;28;20037;-79
2021/12/10 02:08:01;;;;;;;18.77;10.10;;;;;;;1.97;100.00;99463.13;5052523;28;20029;-80
2021/12/10 02:10:28;;;;;;;16.75;9.95;;;;;;;1.95;100.00;99444.88;5052107;28;20487;-79
2021/12/10 02:12:54;;;;;;;22.52;9.98;;;;;;;1.94;100.00;99432.75;5053634;28;20520;-78
2021/12/10 02:15:22;;;;;;;16.65;9.75;;;;;;;1.91;100.00;99432.84;5055286;28;20025;-79
2021/12/10 02:17:50;;;;;;;19.83;9.25;;;;;;;1.93;100.00;99422.34;5055612;28;20025;-79
2021/12/10 02:20:23;;;;;;;24.33;9.73;;;;;;;1.91;100.00;99419.78;5055718;28;20104;-79
2021/12/10 02:22:51;;;;;;;16.13;9.00;;;;;;;1.89;100.00;99415.53;5055723;28;20104;-79
2021/12/10 02:25:25;;;;;;;20.77;9.13;;;;;;;1.91;100.00;99413.72;5055236;28;20488;-79
2021/12/10 02:27:51;;;;;;;20.27;9.02;;;;;;;1.91;100.00;99417.19;5055867;28;20033;-79
2021/12/10 02:30:18;;;;;;;17.98;8.43;;;;;;;1.90;100.00;99405.03;5055620;28;21961;-79
2021/12/10 02:32:43;;;;;;;19.33;8.25;;;;;;;1.92;100.00;99411.06;5055631;28;20376;-79
2021/12/10 02:35:12;;;;;;;18.60;7.80;;;;;;;1.98;100.00;99404.78;5054765;28;20101;-79
2021/12/10 02:37:40;;;;;;;21.23;8.23;;;;;;;2.05;100.00;99401.06;5055432;28;20025;-78
2021/12/10 02:40:07;;;;;;;13.93;7.57;;;;;;;2.12;100.00;99386.91;5055709;28;20029;-74
2021/12/10 02:42:33;;;;;;;19.88;7.68;;;;;;;2.18;100.00;99380.63;5055769;28;20025;-79
2021/12/10 02:44:59;;;;;;;13.60;7.10;;;;;;;2.23;100.00;99383.94;5055284;28;20095;-79
2021/12/10 02:47:24;;;;;;;15.82;6.80;;;;;;;2.27;100.00;99380.28;5054899;28;20362;-78
2021/12/10 02:49:50;;;;;;;12.13;6.20;;;;;;;2.36;100.00;99373.06;5055196;28;20036;-79
2021/12/10 02:52:16;;;;;;;13.35;6.57;;;;;;;2.37;100.00;99364.34;5055366;28;20436;-79
2021/12/10 02:54:43;;;;;;;13.02;6.47;;;;;;;2.40;100.00;99364.22;5054979;28;20029;-79
2021/12/10 02:57:16;;;;;;;17.33;6.60;;;;;;;2.39;100.00;99359.88;5054699;28;20049;-79
2021/12/10 02:59:42;;;;;;;13.07;6.47;;;;;;;2.41;100.00;99350.25;5053666;28;20032;-79
2021/12/10 03:02:15;;;;;;;14.00;6.20;;;;;;;2.44;100.00;99340.53;5055324;28;20032;-77
2021/12/10 03:04:42;;;;;;;15.40;6.63;;;;;;;2.45;100.00;99331.78;5053577;28;20029;-79
2021/12/10 03:07:13;;;;;;;16.02;6.32;;;;;;;2.48;100.00;99328.19;5054271;28;20056;-71
2021/12/10 03:09:40;;;;;;;13.18;5.28;;;;;;;2.52;100.00;99328.94;5054638;28;20021;-79
2021/12/10 03:12:07;;;;;;;12.95;5.55;;;;;;;2.50;100.00;99336.00;5054761;28;20085;-75
2021/12/10 03:14:36;;;;;;;15.18;6.03;;;;;;;2.54;100.00;99337.59;5054705;28;20086;-71
2021/12/10 03:17:08;;;;;;;11.73;5.20;;;;;;;2.51;100.00;99328.09;5054278;28;20029;-71
2021/12/10 03:19:34;;;;;;;14.90;5.90;;;;;;;2.50;100.00;99328.16;5054737;28;20036;-78
2021/12/10 03:22:00;;;;;;;12.55;6.10;;;;;;;2.46;100.00;99322.19;5054474;28;20036;-80
2021/12/10 03:24:27;;;;;;;13.77;5.70;;;;;;;2.43;100.00;99311.84;5054204;28;20021;-80
2021/12/10 03:26:57;;;;;;;17.63;6.65;;;;;;;2.41;100.00;99308.44;5051735;28;20036;-80
2021/12/10 03:29:24;;;;;;;14.45;6.45;;;;;;;2.40;100.00;99304.97;5054714;28;20060;-81
2021/12/10 03:31:51;;;;;;;12.18;6.50;;;;;;;2.38;100.00;99303.31;5054305;28;20041;-82
2021/12/10 03:34:19;;;;;;;16.33;6.03;;;;;;;2.35;100.00;99300.81;5054499;28;20468;-81
2021/12/10 03:36:46;;;;;;;16.10;6.50;;;;;;;2.33;100.00;99300.00;5054289;28;20447;-81
2021/12/10 03:39:17;;;;;;;16.75;5.60;;;;;;;2.35;100.00;99290.38;5054303;28;20032;-81
2021/12/10 03:41:43;;;;;;;12.83;5.97;;;;;;;2.36;100.00;99285.09;5054864;28;20090;-81
2021/12/10 03:44:10;;;;;;;11.27;5.75;;;;;;;2.34;100.00;99292.16;5054701;28;20028;-81
2021/12/10 03:46:35;;;;;;;14.25;5.85;;;;;;;2.33;100.00;99279.97;5054178;28;20049;-82
2021/12/10 03:49:03;;;;;;;15.75;6.50;;;;;;;2.31;100.00;99279.19;5054614;28;20052;-83
2021/12/10 03:51:30;;;;;;;15.60;5.88;;;;;;;2.31;100.00;99263.50;5054715;28;20039;-83
2021/12/10 03:53:56;;;;;;;11.05;5.85;;;;;;;2.29;100.00;99267.94;5054388;28;20028;-82
2021/12/10 03:56:24;;;;;;;16.30;5.78;;;;;;;2.29;100.00;99257.50;5054003;28;20025;-79
2021/12/10 03:58:52;;;;;;;16.08;6.32;;;;;;;2.28;100.00;99258.41;5053869;28;20480;-80
2021/12/10 04:01:22;;;;;;;16.15;5.78;;;;;;;2.29;100.00;99253.13;5054074;28;20020;-80
2021/12/10 04:03:49;;;;;;;13.65;5.57;;;;;;;2.33;100.00;99247.75;5054158;28;20025;-80
2021/12/10 04:06:15;;;;;;;14.20;5.90;;;;;;;2.31;100.00;99232.16;5053813;28;20029;-79
2021/12/10 04:08:40;;;;;;;15.95;6.05;;;;;;;2.30;100.00;99225.22;5053222;28;20029;-78
2021/12/10 04:11:08;;;;;;;13.60;5.95;;;;;;;2.30;100.00;99233.06;5053774;28;20106;-80
2021/12/10 04:13:34;;;;;;;15.85;6.03;;;;;;;2.26;100.00;99229.72;5054206;28;20021;-79
2021/12/10 04:16:00;;;;;;;16.00;5.50;;;;;;;2.26;100.00;99229.72;5055727;28;20025;-79
2021/12/10 04:18:25;;;;;;;13.32;5.63;;;;;;;2.26;100.00;99219.28;5055578;28;20029;-79
2021/12/10 04:20:51;;;;;;;13.48;5.35;;;;;;;2.28;100.00;99217.44;5053717;28;20059;-75
2021/12/10 04:23:19;;;;;;;17.95;5.60;;;;;;;2.29;100.00;99206.09;5053326;28;20029;-80
2021/12/10 04:25:45;;;;;;;13.93;5.40;;;;;;;2.31;100.00;99203.41;5053548;28;20032;-79
2021/12/10 04:28:15;;;;;;;12.73;4.82;;;;;;;2.33;100.00;99200.75;5053167;28;20029;-78
2021/12/10 04:30:42;;;;;;;11.35;4.78;;;;;;;2.34;100.00;99194.63;5044011;28;20049;-80
2021/12/10 04:33:10;;;;;;;13.15;5.07;;;;;;;2.36;100.00;99192.81;5053493;28;20059;-79
2021/12/10 04:35:36;;;;;;;10.98;4.70;;;;;;;2.33;100.00;99180.72;5052893;28;20527;-80
2021/12/10 04:38:03;;;;;;;12.57;4.93;;;;;;;2.36;100.00;99166.69;5053014;28;20025;-78
2021/12/10 04:40:29;;;;;;;15.50;4.72;;;;;;;2.35;100.00;99171.03;5052592;28;20078;-80
2021/12/10 04:42:55;;;;;;;17.15;4.68;;;;;;;2.40;100.00;99179.56;5053138;28;20028;-80
2021/12/10 04:45:21;;;;;;;11.52;5.15;;;;;;;2.38;100.00;99172.69;5053238;28;20029;-80
2021/12/10 04:47:47;;;;;;;12.50;4.53;;;;;;;2.38;100.00;99173.56;5053260;28;20070;-79
2021/12/10 04:50:17;;;;;;;13.57;4.55;;;;;;;2.39;100.00;99170.03;5052928;28;20029;-79
2021/12/10 04:52:42;;;;;;;11.25;3.95;;;;;;;2.44;100.00;99164.63;5052502;28;20393;-79
2021/12/10 04:55:10;;;;;;;9.07;3.97;;;;;;;2.40;100.00;99156.03;5052790;28;20028;-76
2021/12/10 04:57:37;;;;;;;9.80;4.20;;;;;;;2.43;100.00;99147.25;5053007;28;20033;-76
2021/12/10 05:00:07;;;;;;;11.32;3.95;;;;;;;2.49;100.00;99152.22;5052705;28;20031;-77
2021/12/10 05:02:34;;;;;;;15.18;4.78;;;;;;;2.49;100.00;99143.56;5052519;28;20502;-79
2021/12/10 05:05:00;;;;;;;9.77;3.97;;;;;;;2.49;100.00;99143.56;5052912;28;20052;-79
2021/12/10 05:07:30;;;;;;;14.75;3.55;;;;;;;2.48;100.00;99137.47;5052414;28;20063;-78
2021/12/10 05:09:56;;;;;;;10.23;3.78;;;;;;;2.50;100.00;99140.03;5052889;28;20033;-78
2021/12/10 05:12:21;;;;;;;11.82;3.90;;;;;;;2.47;100.00;99130.56;5051941;28;20031;-79
2021/12/10 05:14:47;;;;;;;10.23;3.72;;;;;;;2.50;100.00;99129.59;5052529;28;20037;-79
2021/12/10 05:17:12;;;;;;;11.88;3.33;;;;;;;2.51;100.00;99126.91;5052962;28;20025;-79
2021/12/10 05:19:39;;;;;;;11.88;3.13;;;;;;;2.53;100.00;99132.94;5052870;28;20500;-72
2021/12/10 05:22:09;;;;;;;13.13;3.58;;;;;;;2.54;100.00;99118.09;5051931;28;20025;-77
2021/12/10 05:24:34;;;;;;;10.10;3.20;;;;;;;2.54;100.00;99133.78;5052597;28;20060;-76
2021/12/10 05:27:02;;;;;;;10.10;3.10;;;;;;;2.55;100.00;99130.25;5052797;28;20056;-76
2021/12/10 05:29:28;;;;;;;7.32;2.78;;;;;;;2.57;100.00;99125.81;5052571;28;20017;-79
2021/12/10 05:31:58;;;;;;;11.40;3.25;;;;;;;2.61;100.00;99114.34;5050092;28;20060;-71
2021/12/10 05:34:24;;;;;;;7.28;2.92;;;;;;;2.59;100.00;99118.75;5050848;28;20037;-78
2021/12/10 05:36:49;;;;;;;9.63;2.80;;;;;;;2.62;100.00;99124.72;5048642;28;20457;-72
2021/12/10 05:39:17;;;;;;;13.65;3.63;;;;;;;2.64;100.00;99126.44;5032082;28;20030;-78
2021/12/10 05:41:43;;;;;;;6.45;2.70;;;;;;;2.64;100.00;99122.03;5048264;28;20436;-78
2021/12/10 05:44:09;;;;;;;6.10;2.72;;;;;;;2.64;100.00;99122.03;5051907;28;20096;-78
2021/12/10 05:46:37;;;;;;;7.30;2.90;;;;;;;2.66;100.00;99121.97;5042721;28;20560;-76
2021/12/10 05:49:03;;;;;;;12.27;3.03;;;;;;;2.68;100.00;99118.38;5036503;28;20462;-79
2021/12/10 05:51:28;;;;;;;11.43;2.70;;;;;;;2.67;100.00;99115.84;5049825;28;20094;-79
2021/12/10 05:53:53;;;;;;;9.63;2.60;;;;;;;2.68;100.00;99114.94;5055981;28;20074;-79
2021/12/10 05:56:19;;;;;;;9.93;2.95;;;;;;;2.66;100.00;99108.91;5056083;28;20032;-78
2021/12/10 05:58:45;;;;;;;6.93;2.80;;;;;;;2.66;100.00;99116.75;5056187;28;20062;-80
2021/12/10 06:01:12;;;;;;;5.78;2.35;;;;;;;2.64;100.00;99110.75;5056050;28;20120;-76
2021/12/10 06:03:40;;;;;;;11.45;3.30;;;;;;;2.62;100.00;99122.13;5056064;28;20017;-77
2021/12/10 06:06:07;;;;;;;6.43;2.83;;;;;;;2.60;100.00;99118.69;5055344;28;20373;-79
2021/12/10 06:08:32;;;;;;;7.88;3.08;;;;;;;2.61;100.00;99117.78;5055713;28;20029;-79
2021/12/10 06:10:59;;;;;;;12.07;3.03;;;;;;;2.63;100.00;99115.09;5056120;28;20826;-79
2021/12/10 06:13:25;;;;;;;8.25;2.60;;;;;;;2.64;100.00;99122.03;5056047;28;20024;-77
2021/12/10 06:15:51;;;;;;;7.05;2.72;;;;;;;2.68;100.00;99125.38;5053444;28;20017;-79
2021/12/10 06:18:16;;;;;;;11.73;2.83;;;;;;;2.69;100.00;99127.09;5054031;28;20464;-79
2021/12/10 06:20:45;;;;;;;7.90;2.65;;;;;;;2.71;100.00;99118.28;5055813;28;20029;-77
2021/12/10 06:23:11;;;;;;;14.32;2.67;;;;;;;2.71;100.00;99123.50;5055775;28;20032;-80
2021/12/10 06:25:37;;;;;;;8.45;2.60;;;;;;;2.71;100.00;99125.25;5055586;28;20037;-78
2021/12/10 06:28:03;;;;;;;7.72;2.88;;;;;;;2.72;100.00;99121.75;5055273;28;20031;-79
2021/12/10 06:30:31;;;;;;;9.85;2.67;;;;;;;2.73;100.00;99128.66;5055649;28;20051;-78
2021/12/10 06:32:59;;;;;;;6.93;2.35;;;;;;;2.73;100.00;99124.28;5055243;28;20043;-78
2021/12/10 06:35:27;;;;;;;11.40;2.60;;;;;;;2.73;100.00;99128.66;5052792;28;20033;-80
2021/12/10 06:37:53;;;;;;;8.80;2.78;;;;;;;2.72;100.00;99119.13;5054242;28;20025;-76
2021/12/10 06:40:23;;;;;;;12.40;2.92;;;;;;;2.73;100.00;99126.06;5042451;28;20061;-76
2021/12/10 06:42:50;;;;;;;12.20;2.85;;;;;;;2.70;100.00;99131.38;5051745;28;20029;-74
2021/12/10 06:45:19;;;;;;;8.73;2.50;;;;;;;2.65;100.00;99128.97;5054829;28;20434;-73
2021/12/10 06:47:47;;;;;;;8.20;2.60;;;;;;;2.65;100.00;99125.50;5054763;28;20036;-75
2021/12/10 06:50:18;;;;;;;9.88;2.90;;;;;;;2.63;100.00;99122.94;5054150;28;20033;-80
2021/12/10 06:52:44;;;;;;;12.13;3.20;;;;;;;2.61;100.00;99122.19;5053587;28;20029;-77
2021/12/10 06:55:11;;;;;;;13.88;3.28;;;;;;;2.60;100.00;99128.31;5054976;28;20047;-78
2021/12/10 06:57:37;;;;;;;9.95;3.28;;;;;;;2.61;100.00;99128.25;5054514;28;20021;-78
2021/12/10 07:00:08;;;;;;;8.68;3.20;;;;;;;2.60;100.00;99144.84;5054232;28;20075;-78
2021/12/10 07:02:34;;;;;;;11.45;3.35;;;;;;;2.59;100.00;99140.50;5054910;28;20123;-77
2021/12/10 07:04:59;;;;;;;11.95;3.13;;;;;;;2.59;100.00;99148.34;5057508;28;20464;-77
2021/12/10 07:07:24;;;;;;;12.20;3.45;;;;;;;2.59;100.00;99139.66;5057210;28;20115;-77
2021/12/10 07:09:50;;;;;;;10.13;3.30;;;;;;;2.57;100.00;99139.75;5054714;28;20081;-79
2021/12/10 07:12:16;;;;;;;13.60;3.60;;;;;;;2.57;100.00;99141.47;5054416;28;20353;-76
2021/12/10 07:14:43;;;;;;;9.80;3.17;;;;;;;2.57;100.00;99136.25;5053957;28;20746;-78
2021/12/10 07:17:08;;;;;;;15.70;4.57;;;;;;;2.54;100.00;99145.06;5050159;28;20032;-79
2021/12/10 07:19:34;;;;;;;11.40;3.50;;;;;;;2.57;100.00;99141.47;5045541;28;20049;-76
2021/12/10 07:21:59;;;;;;;13.15;3.45;;;;;;;2.58;100.00;99143.19;5042138;28;20365;-76
2021/12/10 07:24:24;;;;;;;11.18;3.53;;;;;;;2.60;100.00;99149.22;5035980;28;20112;-76
2021/12/10 07:26:50;;;;;;;7.93;2.97;;;;;;;2.60;100.00;99154.44;5053668;28;20017;-70
2021/12/10 07:29:16;;;;;;;12.65;3.20;;;;;;;2.61;100.00;99149.16;5054519;28;20025;-77
2021/12/10 07:31:44;;;;;;;7.20;3.10;;;;;;;2.64;100.00;99152.56;5053616;28;20080;-78
2021/12/10 07:34:10;;;;;;;11.25;3.47;;;;;;;2.62;100.00;99160.44;5052062;28;20021;-75
2021/12/10 07:36:38;;;;;;;8.77;3.33;;;;;;;2.65;100.00;99151.63;5053653;28;20535;-70
2021/12/10 07:39:04;;;;;;;8.13;2.72;;;;;;;2.62;100.00;99155.22;5052981;28;20400;-75
2021/12/10 07:41:30;;;;;;;8.18;3.03;;;;;;;2.61;100.00;99157.00;5053733;28;20029;-73
2021/12/10 07:43:55;;;;;;;11.57;3.42;;;;;;;2.62;100.00;99158.69;5044861;28;20048;-71
2021/12/10 07:46:24;;;;;;;9.82;3.22;;;;;;;2.59;100.00;99160.56;5054131;28;20075;-77
2021/12/10 07:48:50;;;;;;;9.20;3.20;;;;;;;2.53;100.00;99166.91;5053548;28;20056;-77
2021/12/10 07:51:22;;;;;;;13.40;3.30;;;;;;;2.50;100.00;99161.78;5053460;28;20025;-79
2021/12/10 07:53:51;;;;;;;10.40;3.83;;;;;;;2.49;100.00;99160.06;5054202;28;20032;-79
2021/12/10 07:56:17;;;;;;;8.68;3.58;;;;;;;2.46;100.00;99161.03;5053406;28;20021;-78
2021/12/10 07:58:43;;;;;;;7.50;3.30;;;;;;;2.48;100.00;99168.81;5053542;28;20116;-74
2021/12/10 08:01:18;;;;;;;13.50;4.35;;;;;;;2.45;100.00;99159.34;5053888;28;20048;-77
2021/12/10 08:03:44;;;;;;;10.23;3.78;;;;;;;2.46;100.00;99165.44;5053999;28;20055;-76
2021/12/10 08:06:11;;;;;;;13.27;4.25;;;;;;;2.43;100.00;99160.31;5058821;28;20100;-74
2021/12/10 08:08:36;;;;;;;10.63;4.28;;;;;;;2.41;100.00;99162.97;5054732;28;20025;-73
2021/12/10 08:11:03;;;;;;;12.55;4.32;;;;;;;2.43;100.00;99162.91;5052859;28;20120;-78
2021/12/10 08:13:29;;;;;;;12.32;4.78;;;;;;;2.42;100.00;99169.06;5052409;28;20448;-74
2021/12/10 08:15:55;;;;;;;11.90;4.47;;;;;;;2.43;100.00;99168.13;5053451;28;20056;-77
2021/12/10 08:18:21;;;;;;;16.33;4.60;;;;;;;2.47;100.00;99172.38;5040210;28;20061;-76
2021/12/10 08:20:47;;;;;;;14.57;4.55;;;;;;;2.48;100.00;99175.81;5042385;28;20100;-75
2021/12/10 08:23:12;;;;;;;15.80;5.07;;;;;;;2.49;100.00;99180.13;5053656;28;20036;-73
2021/12/10 08:25:38;;;;;;;13.57;4.55;;;;;;;2.49;100.00;99175.75;5046492;28;20028;-72
2021/12/10 08:28:05;;;;;;;13.10;4.45;;;;;;;2.53;100.00;99179.09;5046001;28;20028;-79
2021/12/10 08:30:32;;;;;;;14.65;5.20;;;;;;;2.52;100.00;99174.78;5048561;28;20060;-76
2021/12/10 08:32:58;;;;;;;12.40;4.50;;;;;;;2.53;100.00;99176.50;5050486;28;20053;-73
2021/12/10 08:35:29;;;;;;;21.52;5.30;;;;;;;2.56;100.00;99186.84;5050887;28;20025;-74
2021/12/10 08:37:57;;;;;;;16.92;4.75;;;;;;;2.57;100.00;99178.94;5050415;28;20116;-71
2021/12/10 08:40:26;;;;;;;12.18;4.47;;;;;;;2.56;100.00;99185.06;5046161;28;20060;-71
2021/12/10 08:42:53;;;;;;;11.30;4.07;;;;;;;2.57;100.00;99181.53;5050488;28;20029;-75
2021/12/10 08:45:20;;;;;;;10.43;4.30;;;;;;;2.57;100.00;99191.13;5052629;28;20056;-73
2021/12/10 08:47:48;;;;;;;16.45;4.80;;;;;;;2.57;100.00;99192.00;5051471;28;20021;-77
2021/12/10 08:50:16;;;;;;;15.32;4.90;;;;;;;2.58;100.00;99185.00;5037589;28;20032;-74
2021/12/10 08:52:42;;;;;;;12.68;4.63;;;;;;;2.60;100.00;99196.25;5042301;28;20030;-73
2021/12/10 08:55:08;;;;;;;12.48;4.80;;;;;;;2.67;100.00;99192.47;5045312;28;20483;-73
2021/12/10 08:57:33;;;;;;;16.30;4.50;;;;;;;2.69;100.00;99193.28;5052385;28;20025;-75
2021/12/10 08:59:59;;;;;;;12.75;4.72;;;;;;;2.68;100.00;99203.81;5051931;28;20032;-75
2021/12/10 09:02:24;;;;;;;16.02;4.38;;;;;;;2.68;100.00;99202.03;5051477;28;20036;-76
2021/12/10 09:04:50;;;;;;;13.23;4.60;;;;;;;2.69;100.00;99201.13;5051897;28;20036;-76
2021/12/10 09:07:17;;;;;;;14.45;4.43;;;;;;;2.73;100.00;99210.53;5048332;28;20052;-76
2021/12/10 09:09:45;;;;;;;12.50;4.50;;;;;;;2.72;100.00;99214.06;5048413;28;20029;-74
2021/12/10 09:12:16;;;;;;;20.52;4.35;;;;;;;2.71;100.00;99222.84;5052344;28;20029;-74
2021/12/10 09:14:47;;;;;;;12.20;4.60;;;;;;;2.72;100.00;99218.44;5051593;28;20052;-72
2021/12/10 09:17:16;;;;;;;15.90;4.60;;;;;;;2.74;100.00;99221.88;5051410;28;20021;-75
2021/12/10 09:19:43;;;;;;;10.88;4.43;;;;;;;2.74;100.00;99222.72;5051203;28;20052;-72
2021/12/10 09:22:09;;;;;;;10.63;4.53;;;;;;;2.76;100.00;99227.88;5052136;28;20044;-72
2021/12/10 09:24:36;;;;;;;12.35;4.85;;;;;;;2.78;100.00;99226.06;5052817;28;20041;-74
2021/12/10 09:27:03;;;;;;;13.85;5.80;;;;;;;2.83;100.00;99238.97;5041233;28;20112;-76
2021/12/10 09:29:35;;;;;;;17.90;7.82;;;;;;;2.86;100.00;99244.06;5051919;28;20037;-75
2021/12/10 09:32:10;;;;;;;13.68;5.60;;;;;;;2.88;100.00;99245.69;5039705;28;20048;-74
2021/12/10 09:34:36;;;;;;;10.43;5.25;;;;;;;2.91;100.00;99234.28;5045204;28;20034;-69
2021/12/10 09:37:02;;;;;;;11.32;5.07;;;;;;;2.89;100.00;99246.53;5046771;28;20388;-70
2021/12/10 09:39:30;;;;;;;12.93;4.75;;;;;;;2.91;100.00;99248.19;5052296;28;20083;-70
2021/12/10 09:41:56;;;;;;;13.10;5.00;;;;;;;2.88;100.00;99250.09;5050842;28;20078;-73
2021/12/10 09:44:22;;;;;;;15.30;4.85;;;;;;;2.92;100.00;99262.13;5051715;28;20033;-77
2021/12/10 09:46:48;;;;;;;12.95;4.78;;;;;;;2.92;100.00;99256.91;5052188;28;20033;-78
2021/12/10 09:49:14;;;;;;;11.70;4.57;;;;;;;2.93;100.00;99256.84;5051772;28;20033;-78
2021/12/10 09:51:46;;;;;;;12.70;4.55;;;;;;;2.96;100.00;99255.84;5051670;28;20060;-78
2021/12/10 09:54:16;;;;;;;10.48;5.05;;;;;;;3.00;100.00;99259.22;5052233;28;20472;-78
2021/12/10 09:56:47;;;;;;;13.57;5.07;;;;;;;3.01;100.00;99261.75;5051660;28;20029;-75
2021/12/10 09:59:14;;;;;;;16.00;5.30;;;;;;;3.05;100.00;99263.34;5051639;28;20033;-75
2021/12/10 10:01:44;;;;;;;15.65;6.10;;;;;;;3.01;100.00;99268.75;5050522;28;20022;-74
2021/12/10 10:04:14;;;;;;;17.52;5.70;;;;;;;3.03;100.00;99267.78;5052113;28;20029;-76
2021/12/10 10:06:44;;;;;;;12.02;5.20;;;;;;;3.05;100.00;99263.34;5051951;28;20095;-70
2021/12/10 10:09:14;;;;;;;10.13;4.93;;;;;;;3.05;100.00;99262.50;5048067;28;20021;-74
2021/12/10 10:11:40;;;;;;;14.55;5.18;;;;;;;3.03;100.00;99274.78;5051824;28;20432;-73
2021/12/10 10:14:05;;;;;;;11.98;5.03;;;;;;;3.03;100.00;99265.19;5050752;28;20369;-72
2021/12/10 10:16:35;;;;;;;10.63;4.80;;;;;;;3.06;100.00;99266.81;5052226;28;20476;-73
2021/12/10 10:19:00;;;;;;;14.20;5.43;;;;;;;3.08;100.00;99273.69;5051670;28;20218;-77
2021/12/10 10:21:32;;;;;;;12.25;4.97;;;;;;;3.08;100.00;99273.69;5052209;28;20440;-75
2021/12/10 10:23:59;;;;;;;19.30;5.43;;;;;;;3.12;100.00;99284.91;5052192;28;20488;-71
2021/12/10 10:26:32;;;;;;;18.48;5.43;;;;;;;3.08;100.00;99286.78;5051955;28;20124;-75
2021/12/10 10:29:05;;;;;;;13.85;4.82;;;;;;;3.06;100.00;99275.50;5051080;28;20419;-73
2021/12/10 10:31:31;;;;;;;12.80;5.18;;;;;;;3.12;100.00;99279.66;5051835;28;20041;-74
2021/12/10 10:34:00;;;;;;;12.18;4.68;;;;;;;3.14;100.00;99274.38;5053429;28;20033;-71
2021/12/10 10:36:28;;;;;;;12.88;4.68;;;;;;;3.15;100.00;99276.06;5044069;28;20033;-75
2021/12/10 10:39:00;;;;;;;12.23;4.93;;;;;;;3.13;100.00;99265.66;5036169;28;20112;-74
2021/12/10 10:41:27;;;;;;;16.75;4.72;;;;;;;3.16;100.00;99270.78;5052236;28;20037;-76
2021/12/10 10:43:55;;;;;;;16.83;5.82;;;;;;;3.16;100.00;99273.41;5051788;28;20032;-71
2021/12/10 10:46:20;;;;;;;14.48;4.90;;;;;;;3.18;100.00;99274.16;5053261;28;20025;-73
2021/12/10 10:48:48;;;;;;;12.07;5.43;;;;;;;3.18;100.00;99283.78;5035539;28;20044;-77
2021/12/10 10:51:24;;;;;;;20.55;6.13;;;;;;;3.21;100.00;99278.41;5044464;28;20153;-74
2021/12/10 10:53:53;;;;;;;9.70;5.30;;;;;;;3.21;100.00;99294.13;5045655;28;20525;-74
2021/12/10 10:56:26;;;;;;;11.48;5.88;;;;;;;3.19;100.00;99291.56;5044807;28;20029;-75
2021/12/10 10:58:56;;;;;;;17.40;6.28;;;;;;;3.15;100.00;99286.53;5045320;28;20045;-72
2021/12/10 11:01:27;;;;;;;15.00;6.20;;;;;;;3.17;100.00;99287.31;5052049;28;20013;-76
2021/12/10 11:04:04;;;;;;;20.70;6.15;;;;;;;3.11;100.00;99291.88;5041541;28;20779;-72
2021/12/10 11:06:34;;;;;;;20.52;5.90;;;;;;;3.11;100.00;99291.88;5055522;28;20070;-71
2021/12/10 11:09:04;;;;;;;12.98;6.40;;;;;;;3.16;100.00;99290.84;5039011;28;20029;-77
2021/12/10 11:11:35;;;;;;;18.30;6.50;;;;;;;3.18;100.00;99289.84;5046238;28;20043;-78
2021/12/10 11:14:08;;;;;;;15.23;6.80;;;;;;;3.20;100.00;99285.44;5052920;28;20027;-72
2021/12/10 11:16:37;;;;;;;19.20;7.13;;;;;;;3.25;100.00;99286.09;5052432;28;20031;-73
2021/12/10 11:19:29;;;;;;;17.70;7.60;;;;;;;3.34;100.00;99297.09;5053816;28;20056;-75
2021/12/10 11:22:02;;;;;;;15.13;6.72;;;;;;;3.41;100.00;99296.78;5045068;28;20059;-74
2021/12/10 11:24:51;;;;;;;16.75;7.25;;;;;;;3.47;100.00;99307.97;5054660;28;20029;-74
2021/12/10 11:27:16;;;;;;;13.80;6.95;;;;;;;3.50;100.00;99307.81;5053417;28;20039;-73
2021/12/10 11:30:13;;;;;;;16.15;6.80;;;;;;;3.43;100.00;99302.81;5054137;28;20033;-74
2021/12/10 11:32:49;;;;;;;14.68;6.93;;;;;;;3.50;100.00;99310.44;5012380;28;20052;-71
2021/12/10 11:35:33;;;;;;;14.93;6.28;;;;;;;3.60;100.00;99309.97;5026491;28;20076;-73
2021/12/10 11:38:14;;;;;;;22.98;7.07;;;;;;;3.62;100.00;99307.34;5030921;28;20089;-74
2021/12/10 11:40:54;;;;;;;20.88;6.32;;;;;;;3.60;100.00;99311.75;5030308;28;20071;-74